createdAt,value
2023-04-09T00:01:03.460Z,56.40
2023-04-09T00:03:29.955Z,56.43
2023-04-09T00:05:56.637Z,59.53
2023-04-09T00:08:26.211Z,61.83
2023-04-09T00:10:53.520Z,55.17
2023-04-09T00:13:25.452Z,49.43
2023-04-09T00:16:02.516Z,65.83
2023-04-09T00:18:28.988Z,69.27
2023-04-09T00:20:55.667Z,50.07
2023-04-09T00:23:22.174Z,46.93
2023-04-09T00:25:48.737Z,43.33
2023-04-09T00:28:15.885Z,55.47
2023-04-09T00:30:42.422Z,53.70
2023-04-09T00:33:08.866Z,54.57
2023-04-09T00:35:35.715Z,53.70
2023-04-09T00:38:02.213Z,57.20
2023-04-09T00:40:28.822Z,54.40
2023-04-09T00:42:55.507Z,50.47
2023-04-09T00:45:21.980Z,45.23
2023-04-09T00:47:48.600Z,49.23
2023-04-09T00:50:16.410Z,49.60
2023-04-09T00:52:42.992Z,46.13
2023-04-09T00:55:10.076Z,38.97
2023-04-09T00:57:36.529Z,38.33
2023-04-09T01:00:04.645Z,37.80
2023-04-09T01:02:31.417Z,36.97
2023-04-09T01:04:58.332Z,37.53
2023-04-09T01:07:31.562Z,36.57
2023-04-09T01:10:08.843Z,40.10
2023-04-09T01:13:06.313Z,40.53
2023-04-09T01:15:36.898Z,38.47
2023-04-09T01:18:09.848Z,37.17
2023-04-09T01:20:43.497Z,38.77
2023-04-09T01:23:27.633Z,37.17
2023-04-09T01:26:09.650Z,38.43
2023-04-09T01:28:43.782Z,44.00
2023-04-09T01:31:18.586Z,44.93
2023-04-09T01:33:45.822Z,42.70
2023-04-09T01:36:13.453Z,44.50
2023-04-09T01:38:41.861Z,44.07
2023-04-09T01:41:11.275Z,46.07
2023-04-09T01:43:38.368Z,47.13
2023-04-09T01:46:04.888Z,43.57
2023-04-09T01:48:31.883Z,43.50
2023-04-09T01:50:58.927Z,39.27
2023-04-09T01:53:28.369Z,39.67
2023-04-09T01:55:56.791Z,42.90
2023-04-09T01:58:24.969Z,44.57
2023-04-09T02:00:52.219Z,42.20
2023-04-09T02:03:23.933Z,43.77
2023-04-09T02:06:00.850Z,48.00
2023-04-09T02:08:28.166Z,43.07
2023-04-09T02:10:58.364Z,44.30
2023-04-09T02:13:27.222Z,45.17
2023-04-09T02:15:54.512Z,52.03
2023-04-09T02:18:31.062Z,53.43
2023-04-09T02:20:58.631Z,58.40
2023-04-09T02:23:26.048Z,55.20
2023-04-09T02:25:53.657Z,56.50
2023-04-09T02:28:20.217Z,67.77
2023-04-09T02:30:46.736Z,55.77
2023-04-09T02:33:13.259Z,61.87
2023-04-09T02:35:39.739Z,57.27
2023-04-09T02:38:06.361Z,66.73
2023-04-09T02:40:32.812Z,61.97
2023-04-09T02:42:59.445Z,69.57
2023-04-09T02:45:25.995Z,54.83
2023-04-09T02:47:52.555Z,64.13
2023-04-09T02:50:19.157Z,64.03
2023-04-09T02:52:47.470Z,65.77
2023-04-09T02:55:14.626Z,59.80
2023-04-09T02:57:41.561Z,54.97
2023-04-09T03:00:08.769Z,57.03
2023-04-09T03:02:35.497Z,55.40
2023-04-09T03:05:02.354Z,58.70
2023-04-09T03:07:28.877Z,62.93
2023-04-09T03:09:55.326Z,56.63
2023-04-09T03:12:21.777Z,54.70
2023-04-09T03:14:48.225Z,65.93
2023-04-09T03:17:14.712Z,65.20
2023-04-09T03:19:41.245Z,63.07
2023-04-09T03:22:07.796Z,64.90
2023-04-09T03:24:34.304Z,57.37
2023-04-09T03:27:00.784Z,62.83
2023-04-09T03:29:27.240Z,56.30
2023-04-09T03:31:53.720Z,63.77
2023-04-09T03:34:20.269Z,52.97
2023-04-09T03:36:46.737Z,49.23
2023-04-09T03:39:13.156Z,60.90
2023-04-09T03:41:39.615Z,58.43
2023-04-09T03:44:06.079Z,57.77
2023-04-09T03:46:32.599Z,58.77
2023-04-09T03:48:59.089Z,65.77
2023-04-09T03:51:25.581Z,57.40
2023-04-09T03:53:52.009Z,64.90
2023-04-09T03:56:18.488Z,53.90
2023-04-09T03:58:44.949Z,62.53
2023-04-09T04:01:11.463Z,57.67
2023-04-09T04:03:38.057Z,61.47
2023-04-09T04:06:04.710Z,58.00
2023-04-09T04:08:31.182Z,61.33
2023-04-09T04:11:03.803Z,59.07
2023-04-09T04:13:30.394Z,56.27
2023-04-09T04:15:56.889Z,50.37
2023-04-09T04:18:23.372Z,53.07
2023-04-09T04:20:49.844Z,53.70
2023-04-09T04:23:16.312Z,54.27
2023-04-09T04:25:42.836Z,54.97
2023-04-09T04:28:09.307Z,55.23
2023-04-09T04:30:35.838Z,49.37
2023-04-09T04:33:02.368Z,46.70
2023-04-09T04:35:28.942Z,47.07
2023-04-09T04:37:55.450Z,50.40
2023-04-09T04:40:22.008Z,48.87
2023-04-09T04:42:48.491Z,46.67
2023-04-09T04:45:14.989Z,45.10
2023-04-09T04:47:41.517Z,45.37
2023-04-09T04:50:08.886Z,48.67
2023-04-09T04:52:36.347Z,44.17
2023-04-09T04:55:02.806Z,42.13
2023-04-09T04:57:29.269Z,42.00
2023-04-09T04:59:55.732Z,44.57
2023-04-09T05:02:22.291Z,41.50
2023-04-09T05:04:48.787Z,39.60
2023-04-09T05:07:15.595Z,38.03
2023-04-09T05:09:42.946Z,41.77
2023-04-09T05:12:09.416Z,43.40
2023-04-09T05:14:35.845Z,42.23
2023-04-09T05:17:02.544Z,45.83
2023-04-09T05:19:29.160Z,41.97
2023-04-09T05:21:55.606Z,45.17
2023-04-09T05:24:22.050Z,43.93
2023-04-09T05:26:48.508Z,42.27
2023-04-09T05:29:15.037Z,39.83
2023-04-09T05:31:43.053Z,40.50
2023-04-09T05:34:09.612Z,39.80
2023-04-09T05:36:36.317Z,37.47
2023-04-09T05:39:02.977Z,36.53
2023-04-09T05:41:29.465Z,38.77
2023-04-09T05:43:55.938Z,36.93
2023-04-09T05:46:22.427Z,35.43
2023-04-09T05:48:48.949Z,34.53
2023-04-09T05:51:15.792Z,35.10
2023-04-09T05:53:42.836Z,33.77
2023-04-09T05:56:16.117Z,32.87
2023-04-09T05:58:43.181Z,34.90
2023-04-09T06:01:10.277Z,34.73
2023-04-09T06:03:36.978Z,35.93
2023-04-09T06:06:03.641Z,33.97
2023-04-09T06:08:30.216Z,33.83
2023-04-09T06:10:56.739Z,33.87
2023-04-09T06:13:23.204Z,32.77
2023-04-09T06:15:49.940Z,35.60
2023-04-09T06:18:16.521Z,34.07
2023-04-09T06:20:42.952Z,35.20
2023-04-09T06:23:09.401Z,33.50
2023-04-09T06:25:36.470Z,35.00
2023-04-09T06:28:03.259Z,36.43
2023-04-09T06:30:31.002Z,34.20
2023-04-09T06:32:57.666Z,32.40
2023-04-09T06:35:24.180Z,30.53
2023-04-09T06:37:50.907Z,31.53
2023-04-09T06:40:17.459Z,31.23
2023-04-09T06:42:43.964Z,32.07
2023-04-09T06:45:10.638Z,32.47
2023-04-09T06:47:37.245Z,29.63
2023-04-09T06:50:04.097Z,31.57
2023-04-09T06:52:30.666Z,32.73
2023-04-09T06:54:57.137Z,33.13
2023-04-09T06:57:23.701Z,31.47
2023-04-09T06:59:50.371Z,31.57
2023-04-09T07:02:17.036Z,30.93
2023-04-09T07:04:43.726Z,29.93
2023-04-09T07:07:10.593Z,31.60
2023-04-09T07:09:37.057Z,32.97
2023-04-09T07:12:03.588Z,34.57
2023-04-09T07:14:30.168Z,30.87
2023-04-09T07:16:56.595Z,34.07
2023-04-09T07:19:23.085Z,33.47
2023-04-09T07:21:49.510Z,32.17
2023-04-09T07:24:16.110Z,32.33
2023-04-09T07:26:42.776Z,33.93
2023-04-09T07:29:09.342Z,34.07
2023-04-09T07:31:36.253Z,34.33
2023-04-09T07:34:02.782Z,35.00
2023-04-09T07:36:29.260Z,35.33
2023-04-09T07:38:55.736Z,36.00
2023-04-09T07:41:22.259Z,36.67
2023-04-09T07:43:48.785Z,36.70
2023-04-09T07:46:20.350Z,36.27
2023-04-09T07:48:48.330Z,35.60
2023-04-09T07:51:15.417Z,37.90
2023-04-09T07:53:41.940Z,36.57
2023-04-09T07:56:08.478Z,36.20
2023-04-09T07:58:35.338Z,36.10
2023-04-09T08:01:01.779Z,36.93
2023-04-09T08:03:28.574Z,35.00
2023-04-09T08:05:55.232Z,35.33
2023-04-09T08:08:21.831Z,33.37
2023-04-09T08:10:48.282Z,32.50
2023-04-09T08:13:14.736Z,32.53
2023-04-09T08:15:41.517Z,32.60
2023-04-09T08:18:08.370Z,33.23
2023-04-09T08:20:34.890Z,31.43
2023-04-09T08:23:01.880Z,31.97
2023-04-09T08:25:28.601Z,29.97
2023-04-09T08:27:55.043Z,28.73
2023-04-09T08:30:21.585Z,31.30
2023-04-09T08:32:48.557Z,30.37
2023-04-09T08:35:15.949Z,30.90
2023-04-09T08:37:43.334Z,26.97
2023-04-09T08:40:10.125Z,25.20
2023-04-09T08:42:37.429Z,23.23
2023-04-09T08:45:05.441Z,25.33
2023-04-09T08:47:33.440Z,24.83
2023-04-09T08:49:59.975Z,22.90
2023-04-09T08:52:35.734Z,23.57
2023-04-09T08:55:02.406Z,23.37
2023-04-09T08:57:28.971Z,23.40
2023-04-09T08:59:55.561Z,20.83
2023-04-09T09:02:24.181Z,21.03
2023-04-09T09:04:50.949Z,19.73
2023-04-09T09:07:17.754Z,20.90
2023-04-09T09:10:02.489Z,21.70
2023-04-09T09:12:39.549Z,22.40
2023-04-09T09:15:25.563Z,24.00
2023-04-09T09:17:57.223Z,22.60
2023-04-09T09:20:24.593Z,22.53
2023-04-09T09:22:54.560Z,21.30
2023-04-09T09:25:26.115Z,25.87
2023-04-09T09:27:53.923Z,20.03
2023-04-09T09:30:25.992Z,17.77
2023-04-09T09:33:15.723Z,17.40
2023-04-09T09:35:54.400Z,17.80
2023-04-09T09:38:22.449Z,18.17
2023-04-09T09:40:49.580Z,17.23
2023-04-09T09:43:16.127Z,16.43
2023-04-09T09:45:43.892Z,17.03
2023-04-09T09:48:11.786Z,19.40
2023-04-09T09:50:41.806Z,19.20
2023-04-09T09:53:11.113Z,19.30
2023-04-09T09:55:49.075Z,16.87
2023-04-09T09:58:23.695Z,17.83
2023-04-09T10:00:51.611Z,16.77
2023-04-09T10:03:25.403Z,19.27
2023-04-09T10:05:53.508Z,16.83
2023-04-09T10:08:21.785Z,17.40
2023-04-09T10:10:48.622Z,17.17
2023-04-09T10:13:26.949Z,17.47
2023-04-09T10:15:53.925Z,17.40
2023-04-09T10:18:21.247Z,17.50
2023-04-09T10:21:02.051Z,17.50
2023-04-09T10:23:39.508Z,16.23
2023-04-09T10:26:06.378Z,16.10
2023-04-09T10:28:33.284Z,15.33
2023-04-09T10:30:59.894Z,15.20
2023-04-09T10:33:28.100Z,15.53
2023-04-09T10:35:55.891Z,14.60
2023-04-09T10:38:52.438Z,14.20
2023-04-09T10:41:29.650Z,14.57
2023-04-09T10:43:57.508Z,13.87
2023-04-09T10:46:35.059Z,13.87
2023-04-09T10:49:13.751Z,14.90
2023-04-09T10:51:41.878Z,13.80
2023-04-09T10:54:33.504Z,13.30
2023-04-09T10:57:09.132Z,13.83
2023-04-09T10:59:41.087Z,12.80
2023-04-09T11:02:09.513Z,12.60
2023-04-09T11:04:42.097Z,13.07
2023-04-09T11:07:09.018Z,12.60
2023-04-09T11:09:36.496Z,11.90
2023-04-09T11:12:03.783Z,12.60
2023-04-09T11:14:30.615Z,12.67
2023-04-09T11:16:57.154Z,13.30
2023-04-09T11:19:23.605Z,12.43
2023-04-09T11:21:50.283Z,12.20
2023-04-09T11:24:18.879Z,12.30
2023-04-09T11:26:45.965Z,12.40
2023-04-09T11:29:12.961Z,12.87
2023-04-09T11:31:39.456Z,12.13
2023-04-09T11:34:05.909Z,12.80
2023-04-09T11:36:35.835Z,12.57
2023-04-09T11:39:02.636Z,12.07
2023-04-09T11:41:38.821Z,13.43
2023-04-09T11:44:05.360Z,12.10
2023-04-09T11:46:35.675Z,12.63
2023-04-09T11:49:03.169Z,13.00
2023-04-09T11:51:33.228Z,13.83
2023-04-09T11:54:03.584Z,13.57
2023-04-09T11:56:31.223Z,13.93
2023-04-09T11:58:58.046Z,13.27
2023-04-09T12:01:24.710Z,14.40
2023-04-09T12:03:55.497Z,14.97
2023-04-09T12:06:23.050Z,14.83
2023-04-09T12:08:56.409Z,14.30
2023-04-09T12:11:28.756Z,14.17
2023-04-09T12:14:04.719Z,14.10
2023-04-09T12:16:32.626Z,14.27
2023-04-09T12:19:03.610Z,14.07
2023-04-09T12:21:53.066Z,13.63
2023-04-09T12:24:21.679Z,14.40
2023-04-09T12:26:48.854Z,14.60
2023-04-09T12:29:16.596Z,14.93
2023-04-09T12:31:43.655Z,14.00
2023-04-09T12:34:10.328Z,14.07
2023-04-09T12:36:38.591Z,14.17
2023-04-09T12:39:05.393Z,14.27
2023-04-09T12:41:31.875Z,13.50
2023-04-09T12:43:58.448Z,13.20
2023-04-09T12:46:25.902Z,13.57
2023-04-09T12:48:52.710Z,15.50
2023-04-09T12:51:19.305Z,14.37
2023-04-09T12:53:46.085Z,13.60
2023-04-09T12:56:12.554Z,12.97
2023-04-09T12:58:39.004Z,14.03
2023-04-09T13:01:06.020Z,14.03
2023-04-09T13:03:32.837Z,13.33
2023-04-09T13:05:59.477Z,13.43
2023-04-09T13:08:26.168Z,13.73
2023-04-09T13:10:52.759Z,12.67
2023-04-09T13:13:19.256Z,12.60
2023-04-09T13:15:46.310Z,13.80
2023-04-09T13:18:13.427Z,12.33
2023-04-09T13:20:40.068Z,12.47
2023-04-09T13:23:06.620Z,12.67
2023-04-09T13:25:33.053Z,12.37
2023-04-09T13:27:59.591Z,12.87
2023-04-09T13:30:26.060Z,12.83
2023-04-09T13:32:52.668Z,11.60
2023-04-09T13:35:19.270Z,12.33
2023-04-09T13:37:45.776Z,11.33
2023-04-09T13:40:12.589Z,11.70
2023-04-09T13:42:39.081Z,12.00
2023-04-09T13:45:06.403Z,11.23
2023-04-09T13:47:33.042Z,11.73
2023-04-09T13:49:59.535Z,11.87
2023-04-09T13:52:29.261Z,11.23
2023-04-09T13:54:56.224Z,10.67
2023-04-09T13:57:22.707Z,10.17
2023-04-09T13:59:49.705Z,9.60
2023-04-09T14:02:18.124Z,10.53
2023-04-09T14:04:44.807Z,9.03
2023-04-09T14:07:11.649Z,10.03
2023-04-09T14:09:38.074Z,10.07
2023-04-09T14:12:04.720Z,9.57
2023-04-09T14:14:31.241Z,10.53
2023-04-09T14:16:57.712Z,9.60
2023-04-09T14:19:24.249Z,9.07
2023-04-09T14:21:53.285Z,9.00
2023-04-09T14:24:22.927Z,10.07
2023-04-09T14:26:51.460Z,9.27
2023-04-09T14:29:17.895Z,9.07
2023-04-09T14:31:44.442Z,8.80
2023-04-09T14:34:10.970Z,9.50
2023-04-09T14:36:38.566Z,9.87
2023-04-09T14:39:05.160Z,9.47
2023-04-09T14:41:34.154Z,9.97
2023-04-09T14:44:00.782Z,9.60
2023-04-09T14:46:27.676Z,12.23
2023-04-09T14:48:54.475Z,9.73
2023-04-09T14:51:21.199Z,9.13
2023-04-09T14:53:47.656Z,10.00
2023-04-09T14:56:14.144Z,8.97
2023-04-09T14:58:40.713Z,9.83
2023-04-09T15:01:07.298Z,10.40
2023-04-09T15:03:33.875Z,10.23
2023-04-09T15:06:00.614Z,9.90
2023-04-09T15:08:27.178Z,10.07
2023-04-09T15:10:53.660Z,10.73
2023-04-09T15:13:20.207Z,11.80
2023-04-09T15:15:46.639Z,11.87
2023-04-09T15:18:13.148Z,11.47
2023-04-09T15:20:40.471Z,11.87
2023-04-09T15:23:07.052Z,12.07
2023-04-09T15:25:33.479Z,11.53
2023-04-09T15:28:00.026Z,10.83
2023-04-09T15:30:26.582Z,12.30
2023-04-09T15:32:53.249Z,11.03
2023-04-09T15:35:24.934Z,11.47
2023-04-09T15:37:51.923Z,10.13
2023-04-09T15:40:18.889Z,11.40
2023-04-09T15:42:45.368Z,11.60
2023-04-09T15:45:14.549Z,12.47
2023-04-09T15:47:41.042Z,12.17
2023-04-09T15:50:08.988Z,12.67
2023-04-09T15:52:35.718Z,12.90
2023-04-09T15:55:02.336Z,13.30
2023-04-09T15:57:28.930Z,12.67
2023-04-09T15:59:55.430Z,14.03
2023-04-09T16:02:23.472Z,13.70
2023-04-09T16:04:51.291Z,14.53
2023-04-09T16:07:17.799Z,15.00
2023-04-09T16:09:46.152Z,14.57
2023-04-09T16:12:12.784Z,14.20
2023-04-09T16:14:40.407Z,14.33
2023-04-09T16:17:07.072Z,15.47
2023-04-09T16:19:33.611Z,15.23
2023-04-09T16:22:00.076Z,15.67
2023-04-09T16:24:27.161Z,15.77
2023-04-09T16:26:53.596Z,16.33
2023-04-09T16:29:20.314Z,14.83
2023-04-09T16:31:46.874Z,13.67
2023-04-09T16:34:13.590Z,12.80
2023-04-09T16:36:41.562Z,13.07
2023-04-09T16:39:08.149Z,13.10
2023-04-09T16:41:36.961Z,12.90
2023-04-09T16:44:03.726Z,13.67
2023-04-09T16:46:30.321Z,13.40
2023-04-09T16:48:56.913Z,12.77
2023-04-09T16:51:23.372Z,12.80
2023-04-09T16:53:50.302Z,12.67
2023-04-09T16:56:17.339Z,13.13
2023-04-09T16:58:44.619Z,12.77
2023-04-09T17:01:11.074Z,13.23
2023-04-09T17:03:37.706Z,13.07
2023-04-09T17:06:04.842Z,14.30
2023-04-09T17:08:31.763Z,13.47
2023-04-09T17:11:04.260Z,14.80
2023-04-09T17:13:32.498Z,14.60
2023-04-09T17:15:58.994Z,16.27
2023-04-09T17:18:25.468Z,16.97
2023-04-09T17:20:52.219Z,16.90
2023-04-09T17:23:19.228Z,16.87
2023-04-09T17:25:46.529Z,17.90
2023-04-09T17:28:13.332Z,19.10
2023-04-09T17:30:39.902Z,18.63
2023-04-09T17:33:06.490Z,19.23
2023-04-09T17:35:33.087Z,19.73
2023-04-09T17:38:00.946Z,19.87
2023-04-09T17:40:28.104Z,20.67
2023-04-09T17:42:55.266Z,21.70
2023-04-09T17:45:21.791Z,22.63
2023-04-09T17:47:48.827Z,22.30
2023-04-09T17:50:15.479Z,23.43
2023-04-09T17:52:42.047Z,23.40
2023-04-09T17:55:11.677Z,22.77
2023-04-09T17:57:38.809Z,25.97
2023-04-09T18:00:05.988Z,26.83
2023-04-09T18:02:32.782Z,22.60
2023-04-09T18:05:00.567Z,22.07
2023-04-09T18:07:30.460Z,27.03
2023-04-09T18:09:57.093Z,28.63
2023-04-09T18:12:23.552Z,24.13
2023-04-09T18:14:50.531Z,22.13
2023-04-09T18:17:17.421Z,21.27
2023-04-09T18:19:44.035Z,20.23
2023-04-09T18:22:10.629Z,20.70
2023-04-09T18:24:37.405Z,19.77
2023-04-09T18:27:04.126Z,18.77
2023-04-09T18:29:31.447Z,19.17
2023-04-09T18:31:59.143Z,20.27
2023-04-09T18:34:25.871Z,19.23
2023-04-09T18:36:53.749Z,18.83
2023-04-09T18:39:22.784Z,18.00
2023-04-09T18:41:49.347Z,19.47
2023-04-09T18:44:16.470Z,20.20
2023-04-09T18:46:43.020Z,21.53
2023-04-09T18:49:09.982Z,20.40
2023-04-09T18:51:36.698Z,21.00
2023-04-09T18:54:03.295Z,20.23
2023-04-09T18:56:29.764Z,21.77
2023-04-09T18:58:56.700Z,21.07
2023-04-09T19:01:23.358Z,21.80
2023-04-09T19:03:50.030Z,21.07
2023-04-09T19:06:18.867Z,21.50
2023-04-09T19:08:46.405Z,21.57
2023-04-09T19:11:13.776Z,21.37
2023-04-09T19:13:40.517Z,20.77
2023-04-09T19:16:09.341Z,20.47
2023-04-09T19:18:37.363Z,20.17
2023-04-09T19:21:05.171Z,20.33
2023-04-09T19:23:34.044Z,20.27
2023-04-09T19:26:00.870Z,20.77
2023-04-09T19:28:27.612Z,20.33
2023-04-09T19:30:54.204Z,20.00
2023-04-09T19:33:21.686Z,20.00
2023-04-09T19:35:49.039Z,20.77
2023-04-09T19:38:16.175Z,20.57
2023-04-09T19:40:42.828Z,21.50
2023-04-09T19:43:09.870Z,19.63
2023-04-09T19:45:37.578Z,20.20
2023-04-09T19:48:05.456Z,21.10
2023-04-09T19:50:37.792Z,18.13
2023-04-09T19:53:05.930Z,19.87
2023-04-09T19:55:35.937Z,19.30
2023-04-09T19:58:03.245Z,19.13
2023-04-09T20:00:31.151Z,19.73
2023-04-09T20:02:57.861Z,20.27
2023-04-09T20:05:24.621Z,19.50
2023-04-09T20:07:52.597Z,19.63
2023-04-09T20:10:19.759Z,21.10
2023-04-09T20:12:50.530Z,20.70
2023-04-09T20:15:19.910Z,20.93
2023-04-09T20:17:48.121Z,20.57
2023-04-09T20:20:17.067Z,22.33
2023-04-09T20:22:47.397Z,21.83
2023-04-09T20:25:14.138Z,22.37
2023-04-09T20:27:40.690Z,33.47
2023-04-09T20:30:08.273Z,21.03
2023-04-09T20:32:36.925Z,22.00
2023-04-09T20:35:04.286Z,20.77
2023-04-09T20:37:30.880Z,20.53
2023-04-09T20:39:59.298Z,22.40
2023-04-09T20:42:25.760Z,21.37
2023-04-09T20:44:52.854Z,22.73
2023-04-09T20:47:21.020Z,22.47
2023-04-09T20:49:49.017Z,22.23
2023-04-09T20:52:15.526Z,22.90
2023-04-09T20:54:43.048Z,21.90
2023-04-09T20:57:11.050Z,23.03
2023-04-09T20:59:39.437Z,22.23
2023-04-09T21:02:06.074Z,22.93
2023-04-09T21:04:32.925Z,23.70
2023-04-09T21:06:59.405Z,22.53
2023-04-09T21:09:26.138Z,22.03
2023-04-09T21:11:52.682Z,22.70
2023-04-09T21:14:19.149Z,22.33
2023-04-09T21:16:45.824Z,23.93
2023-04-09T21:19:13.505Z,23.03
2023-04-09T21:21:40.515Z,23.60
2023-04-09T21:24:06.963Z,22.97
2023-04-09T21:26:45.241Z,23.53
2023-04-09T21:29:17.070Z,25.10
2023-04-09T21:31:43.580Z,23.57
2023-04-09T21:34:10.091Z,22.87
2023-04-09T21:36:39.258Z,23.43
2023-04-09T21:39:05.869Z,22.80
2023-04-09T21:41:32.348Z,22.73
2023-04-09T21:44:03.387Z,23.10
2023-04-09T21:46:29.910Z,24.30
2023-04-09T21:48:56.396Z,23.40
2023-04-09T21:51:22.881Z,23.50
2023-04-09T21:53:49.740Z,23.70
2023-04-09T21:56:16.196Z,23.53
2023-04-09T21:58:42.656Z,23.63
2023-04-09T22:01:18.812Z,24.03
2023-04-09T22:03:52.921Z,23.73
2023-04-09T22:06:19.754Z,22.90
2023-04-09T22:08:55.499Z,22.93
2023-04-09T22:11:28.124Z,24.30
2023-04-09T22:13:58.320Z,22.17
2023-04-09T22:16:25.233Z,24.17
2023-04-09T22:18:52.572Z,22.40
2023-04-09T22:21:19.259Z,23.73
2023-04-09T22:23:45.741Z,23.37
2023-04-09T22:26:12.241Z,23.33
2023-04-09T22:28:39.319Z,23.47
2023-04-09T22:31:06.514Z,23.80
2023-04-09T22:33:33.029Z,24.00
2023-04-09T22:35:59.791Z,23.93
2023-04-09T22:38:26.521Z,25.13
2023-04-09T22:40:55.702Z,26.30
2023-04-09T22:43:22.658Z,24.90
2023-04-09T22:45:51.979Z,25.57
2023-04-09T22:48:19.371Z,24.90
2023-04-09T22:50:46.153Z,26.10
2023-04-09T22:53:12.928Z,25.60
2023-04-09T22:55:39.479Z,25.57
2023-04-09T22:58:05.951Z,26.27
2023-04-09T23:00:32.405Z,25.70
2023-04-09T23:02:58.983Z,25.63
2023-04-09T23:05:25.703Z,26.17
2023-04-09T23:07:52.446Z,25.73
2023-04-09T23:10:19.233Z,26.87
2023-04-09T23:12:45.713Z,27.27
2023-04-09T23:15:12.235Z,24.90
2023-04-09T23:17:38.770Z,26.47
2023-04-09T23:20:06.820Z,26.83
2023-04-09T23:22:33.534Z,26.57
2023-04-09T23:24:59.979Z,26.27
2023-04-09T23:27:28.789Z,26.30
2023-04-09T23:29:56.409Z,26.27
2023-04-09T23:32:22.995Z,25.83
2023-04-09T23:34:50.324Z,26.40
2023-04-09T23:37:17.291Z,27.77
2023-04-09T23:39:44.003Z,27.33
2023-04-09T23:42:10.456Z,27.53
2023-04-09T23:44:36.875Z,27.33
2023-04-09T23:47:05.827Z,27.77
2023-04-09T23:49:32.453Z,34.97
2023-04-09T23:51:58.923Z,42.97
2023-04-09T23:54:25.366Z,39.90
2023-04-09T23:56:51.870Z,37.93
2023-04-09T23:59:18.699Z,31.03
